Time;durP1;ratioP1;P1;durP2;ratioP2;P2;SDS_P1;SDS_P2;PMS_P1;PMS_P2;Temp;Humidity;BMP_temperature;BMP_pressure;BME280_temperature;BME280_humidity;BME280_pressure;Samples;Min_cycle;Max_cycle;Signal;HPM_P1;HPM_P2
2023/10/11 00:00:44;;;;;;;15.67;6.77;;;10.90;99.90;;;9.26;100.00;100863.13;10182823;28;98225;-88
2023/10/11 00:05:48;;;;;;;16.17;6.60;;;10.80;99.90;;;9.14;100.00;100866.91;10231400;28;98281;-89
2023/10/11 00:10:58;;;;;;;15.53;7.27;;;10.70;99.90;;;9.15;100.00;100859.78;10194584;28;97521;-88
2023/10/11 00:16:10;;;;;;;16.27;6.63;;;10.60;99.90;;;9.08;100.00;100852.41;10167153;28;96648;-88
2023/10/11 00:21:17;;;;;;;15.43;6.47;;;10.60;99.90;;;8.97;100.00;100860.50;10210531;28;96625;-88
2023/10/11 00:26:22;;;;;;;13.83;6.77;;;10.40;99.90;;;8.91;100.00;100866.38;10213457;28;98078;-88
2023/10/11 00:31:25;;;;;;;14.50;6.27;;;10.30;99.90;;;8.83;100.00;100859.13;10216000;28;98066;-88
2023/10/11 00:36:30;;;;;;;13.17;6.27;;;10.30;99.90;;;8.79;100.00;100859.53;10207012;28;96672;-88
2023/10/11 00:41:39;;;;;;;20.97;7.43;;;10.20;99.90;;;8.78;100.00;100857.88;10205788;28;97072;-88
2023/10/11 00:51:59;;;;;;;15.50;6.77;;;10.20;99.90;;;8.79;100.00;100852.44;10187263;28;96761;-88
2023/10/11 00:57:04;;;;;;;14.33;6.47;;;10.20;99.90;;;8.79;100.00;100841.81;10192009;28;97162;-87
2023/10/11 01:02:08;;;;;;;12.93;7.03;;;10.30;99.90;;;8.81;100.00;100836.38;10171250;28;98590;-88
2023/10/11 01:07:12;;;;;;;14.50;7.40;;;10.30;99.90;;;8.84;100.00;100833.47;10223761;28;98277;-88
2023/10/11 01:12:15;;;;;;;14.60;6.90;;;10.30;99.90;;;8.81;100.00;100839.88;10230315;28;96761;-88
2023/10/11 01:17:19;;;;;;;16.50;7.00;;;10.30;99.90;;;8.82;100.00;100838.91;10226796;28;97129;-88
2023/10/11 01:22:22;;;;;;;13.50;6.30;;;10.20;99.90;;;8.81;100.00;100839.88;10210295;28;96677;-88
2023/10/11 01:27:30;;;;;;;15.20;7.27;;;10.30;99.90;;;8.84;100.00;100855.50;10192815;28;97862;-88
2023/10/11 01:32:37;;;;;;;12.67;5.90;;;10.30;99.90;;;8.82;100.00;100844.22;10205150;28;98581;-88
2023/10/11 01:37:44;;;;;;;21.57;9.87;;;10.30;99.90;;;8.84;100.00;100838.75;10191711;28;97707;-88
2023/10/11 01:42:51;;;;;;;14.73;6.37;;;10.30;99.90;;;8.83;100.00;100848.53;10207445;28;96744;-88
2023/10/11 01:47:57;;;;;;;14.50;6.87;;;10.30;99.90;;;8.84;100.00;100838.75;10178545;28;96777;-88
2023/10/11 01:53:03;;;;;;;18.33;7.23;;;10.30;99.90;;;8.84;100.00;100844.06;10201340;28;98083;-88
2023/10/11 01:58:12;;;;;;;15.33;6.83;;;10.30;99.90;;;8.86;100.00;100850.06;10171652;28;97617;-88
2023/10/11 02:03:16;;;;;;;15.80;6.80;;;10.30;99.90;;;8.87;100.00;100835.81;10206540;28;98520;-89
2023/10/11 02:08:24;;;;;;;14.37;6.23;;;10.30;99.90;;;8.85;100.00;100837.78;10226008;28;97903;-88
2023/10/11 02:13:30;;;;;;;15.47;6.67;;;10.30;99.90;;;8.80;100.00;100843.50;10200829;28;98395;-89
2023/10/11 02:18:34;;;;;;;15.20;6.63;;;10.20;99.90;;;8.77;100.00;100853.56;10220042;28;98497;-88
2023/10/11 02:23:39;;;;;;;14.73;6.00;;;10.20;99.90;;;8.73;100.00;100850.34;10201127;28;96764;-88
2023/10/11 02:28:46;;;;;;;15.23;6.40;;;10.20;99.90;;;8.72;100.00;100861.91;10197590;28;96642;-88
2023/10/11 02:34:03;;;;;;;17.70;7.50;;;10.10;99.90;;;8.69;100.00;100851.59;10211569;28;96661;-88
2023/10/11 02:39:07;;;;;;;16.70;7.07;;;10.10;99.90;;;8.69;100.00;100842.81;10225509;28;96636;-87
2023/10/11 02:44:10;;;;;;;15.23;7.03;;;10.10;99.90;;;8.69;100.00;100850.75;10188789;28;96651;-88
2023/10/11 02:49:20;;;;;;;19.37;7.40;;;10.10;99.90;;;8.66;100.00;100838.63;10191466;28;98316;-87
2023/10/11 02:54:25;;;;;;;15.43;6.37;;;10.10;99.90;;;8.57;100.00;100844.75;10186159;28;96717;-88
2023/10/11 02:59:29;;;;;;;14.73;6.50;;;10.00;99.90;;;8.51;100.00;100863.84;10205474;28;96642;-88
2023/10/11 03:04:41;;;;;;;17.80;7.97;;;9.90;99.90;;;8.47;100.00;100865.13;10174316;28;98663;-88
2023/10/11 03:09:45;;;;;;;18.47;8.27;;;9.90;99.90;;;8.45;100.00;100849.34;10209021;28;96929;-88
2023/10/11 03:14:54;;;;;;;19.13;7.90;;;9.90;99.90;;;8.43;100.00;100845.19;10201954;28;97007;-88
2023/10/11 03:19:58;;;;;;;25.07;10.67;;;9.90;99.90;;;8.45;100.00;100844.03;10221618;28;97414;-88
2023/10/11 03:25:12;;;;;;;17.90;8.70;;;10.00;99.90;;;8.48;100.00;100854.38;10198842;28;98367;-88
2023/10/11 03:30:16;;;;;;;21.50;8.73;;;10.00;99.90;;;8.55;100.00;100849.38;10172643;28;96627;-88
2023/10/11 03:35:25;;;;;;;17.23;7.87;;;10.00;99.90;;;8.60;100.00;100855.09;10198743;28;97481;-88
2023/10/11 03:41:15;;;;;;;14.30;7.33;;;10.10;99.90;;;8.63;100.00;100857.44;10202233;28;97006;-88
2023/10/11 03:46:01;;;;;;;17.30;8.50;;;10.10;99.90;;;8.72;100.00;100855.78;10203526;28;97042;-88
2023/10/11 03:51:06;;;;;;;16.20;7.13;;;10.20;99.90;;;8.74;100.00;100854.66;10172957;28;96743;-88
2023/10/11 03:56:10;;;;;;;16.70;6.70;;;10.30;99.90;;;8.78;100.00;100842.81;10198123;28;97528;-88
2023/10/11 04:01:23;;;;;;;13.43;6.50;;;10.30;99.90;;;8.78;100.00;100832.22;10182989;28;96637;-88
2023/10/11 04:06:28;;;;;;;19.60;7.70;;;10.30;99.90;;;8.83;100.00;100834.44;10197564;28;96719;-88
2023/10/11 04:11:38;;;;;;;18.33;7.40;;;10.40;99.90;;;8.86;100.00;100860.66;10177648;28;97016;-88
2023/10/11 04:16:44;;;;;;;16.90;8.00;;;10.40;99.90;;;8.90;100.00;100851.44;10154813;28;97075;-88
2023/10/11 04:27:45;;;;;;;16.60;7.00;;;10.50;99.90;;;9.02;100.00;100847.66;10177755;28;98340;-88
2023/10/11 04:37:51;;;;;;;18.73;8.43;;;10.50;99.90;;;9.12;100.00;100866.22;10152394;28;96713;-88
2023/10/11 04:43:04;;;;;;;21.00;9.30;;;10.60;99.90;;;9.20;100.00;100854.91;10162069;28;98571;-88
2023/10/11 04:48:08;;;;;;;18.00;8.40;;;10.70;99.90;;;9.23;100.00;100858.09;10206705;28;98667;-88
2023/10/11 04:53:17;;;;;;;18.80;8.47;;;10.80;99.90;;;9.33;100.00;100861.56;10159025;28;97458;-87
2023/10/11 04:58:41;;;;;;;21.33;8.67;;;10.80;99.90;;;9.37;100.00;100847.03;10159259;28;97769;-86
2023/10/11 05:03:46;;;;;;;17.53;7.53;;;10.90;99.90;;;9.45;100.00;100846.31;10145582;28;96923;-85
2023/10/11 05:08:51;;;;;;;16.13;7.50;;;10.90;99.90;;;9.49;100.00;100850.34;10200408;28;97666;-87
2023/10/11 05:14:10;;;;;;;23.27;9.00;;;11.00;99.90;;;9.51;100.00;100864.28;10209939;28;96781;-88
2023/10/11 05:19:14;;;;;;;23.30;10.30;;;11.00;99.90;;;9.58;100.00;100875.16;10203506;28;96745;-87
2023/10/11 05:30:44;;;;;;;19.70;9.10;;;11.10;99.90;;;9.74;100.00;100878.03;10204673;28;96980;-87
2023/10/11 05:51:19;;;;;;;18.17;7.60;;;11.40;99.90;;;10.03;100.00;100893.84;10209664;28;96830;-87
2023/10/11 05:56:24;;;;;;;18.33;9.03;;;11.50;99.90;;;10.13;100.00;100899.09;10201539;28;96699;-87
2023/10/11 06:01:27;;;;;;;14.03;7.20;;;11.60;99.90;;;10.19;100.00;100898.50;10186077;28;98388;-88
2023/10/11 06:06:38;;;;;;;17.90;7.43;;;11.70;99.90;;;10.24;100.00;100904.25;10192218;28;97962;-88
2023/10/11 06:11:48;;;;;;;20.95;8.43;;;11.70;99.90;;;10.26;100.00;100910.25;10187130;28;96731;-87
2023/10/11 06:16:57;;;;;;;;;;;11.80;99.90;;;10.34;100.00;100917.47;10211116;28;96620;-88
2023/10/11 06:22:10;;;;;;;15.30;7.80;;;11.90;99.90;;;10.37;100.00;100910.03;10163505;28;97671;-87
2023/10/11 06:32:37;;;;;;;19.83;8.70;;;12.00;99.90;;;10.57;100.00;100910.75;10241280;28;97392;-88
2023/10/11 06:37:41;;;;;;;16.90;8.13;;;12.00;99.90;;;10.68;100.00;100915.88;10186267;28;97794;-87
2023/10/11 06:42:45;;;;;;;16.27;7.93;;;12.20;99.90;;;10.81;100.00;100923.47;10219484;28;96608;-87
2023/10/11 06:47:50;;;;;;;22.40;9.33;;;12.30;99.90;;;10.91;100.00;100913.56;10185292;28;96862;-87
2023/10/11 06:52:54;;;;;;;30.10;11.77;;;12.40;99.90;;;11.07;100.00;100909.38;10173393;28;97624;-88
2023/10/11 06:58:02;;;;;;;22.27;10.17;;;12.60;99.90;;;11.24;100.00;100920.00;10182688;28;98883;-87
2023/10/11 07:03:52;;;;;;;23.93;10.63;;;12.70;99.90;;;11.40;100.00;100915.81;10195327;28;97336;-88
2023/10/11 07:08:35;;;;;;;21.87;9.23;;;12.90;99.90;;;11.51;100.00;100926.16;10210776;28;96691;-88
2023/10/11 07:14:00;;;;;;;17.20;8.60;;;13.00;99.90;;;11.61;100.00;100928.75;10207473;28;96612;-89
2023/10/11 07:19:05;;;;;;;14.93;8.03;;;13.10;99.90;;;11.74;100.00;100926.47;10218591;28;97302;-88
2023/10/11 07:29:35;;;;;;;21.17;8.83;;;13.30;99.90;;;11.88;100.00;100927.78;10217963;28;96837;-89
2023/10/11 07:34:40;;;;;;;17.70;8.60;;;13.40;99.90;;;11.91;100.00;100928.28;10172419;28;96680;-88
2023/10/11 07:39:47;;;;;;;19.53;9.10;;;13.40;99.90;;;11.95;100.00;100924.31;10196239;28;96661;-88
2023/10/11 07:44:56;;;;;;;19.45;7.90;;;13.50;99.90;;;11.99;100.00;100925.66;10225849;28;96843;-87
2023/10/11 07:50:00;;;;;;;14.50;7.93;;;13.50;99.90;;;12.06;100.00;100915.22;10222225;28;97405;-88
2023/10/11 07:55:05;;;;;;;20.10;8.40;;;13.60;99.90;;;12.10;100.00;100910.38;10228910;28;96934;-88
2023/10/11 08:00:17;;;;;;;13.07;6.63;;;13.60;99.90;;;12.18;100.00;100915.75;10196440;28;96642;-88
2023/10/11 08:05:21;;;;;;;19.00;8.90;;;13.70;99.90;;;12.24;100.00;100918.63;10189123;28;97058;-88
2023/10/11 08:10:34;;;;;;;16.93;7.13;;;13.70;99.90;;;12.28;100.00;100908.44;10224271;28;96647;-88
2023/10/11 08:15:38;;;;;;;15.17;7.90;;;13.80;99.90;;;12.37;100.00;100918.16;10195297;28;97184;-87
2023/10/11 08:20:46;;;;;;;15.30;7.30;;;13.90;99.90;;;12.38;100.00;100909.16;10187752;28;97503;-87
2023/10/11 08:25:52;;;;;;;16.30;7.80;;;13.90;99.90;;;12.46;100.00;100914.50;10252562;28;96552;-88
2023/10/11 08:30:57;;;;;;;21.73;9.90;;;14.00;99.90;;;12.57;100.00;100919.53;10219240;28;96701;-88
2023/10/11 08:36:04;;;;;;;19.53;10.00;;;14.10;99.90;;;12.69;100.00;100906.72;10188906;28;96859;-88
2023/10/11 08:41:15;;;;;;;29.97;13.03;;;14.20;99.90;;;12.83;100.00;100905.22;10180470;28;96581;-88
2023/10/11 08:46:19;;;;;;;26.93;12.37;;;14.40;99.90;;;12.96;100.00;100905.59;10212397;28;96528;-88
2023/10/11 08:51:23;;;;;;;24.77;11.23;;;14.50;99.90;;;13.05;100.00;100911.75;10198252;28;96586;-88
2023/10/11 08:56:29;;;;;;;34.77;13.27;;;14.50;99.90;;;13.13;100.00;100901.94;10188309;28;96657;-88
2023/10/11 09:01:37;;;;;;;27.17;11.37;;;14.60;99.90;;;13.35;100.00;100900.44;10224027;28;96783;-87
2023/10/11 09:06:44;;;;;;;30.85;13.52;;;14.80;99.90;;;13.60;100.00;100895.88;10226778;28;96661;-88
2023/10/11 09:11:54;;;;;;;32.60;14.35;;;15.00;99.90;;;13.78;100.00;100898.34;10175084;28;96723;-87
2023/10/11 09:17:02;;;;;;;26.70;12.13;;;15.20;99.90;;;14.01;100.00;100882.38;10205856;28;96903;-88
2023/10/11 09:22:17;;;;;;;25.83;10.85;;;15.40;99.90;;;14.30;100.00;100895.13;10194969;28;96522;-86
2023/10/11 09:27:24;;;;;;;23.05;11.68;;;15.70;99.90;;;14.41;100.00;100892.06;10226732;28;96889;-88
2023/10/11 09:32:35;;;;;;;26.00;11.05;;;15.90;99.90;;;14.45;100.00;100885.34;10188126;28;98040;-87
2023/10/11 09:37:39;;;;;;;22.27;10.95;;;15.90;99.90;;;14.58;100.00;100889.31;10211890;28;96742;-88
2023/10/11 09:42:43;;;;;;;33.67;13.48;;;16.10;99.90;;;14.72;100.00;100885.88;10205987;28;97735;-87
2023/10/11 09:47:54;;;;;;;31.83;12.32;;;16.20;99.90;;;14.92;100.00;100886.22;10224873;28;98364;-88
2023/10/11 09:53:07;;;;;;;35.03;12.73;;;16.30;99.90;;;15.22;100.00;100882.59;10203148;28;98571;-89
2023/10/11 09:58:41;;;;;;;32.83;12.25;;;16.60;99.90;;;15.46;100.00;100880.72;10154330;28;96804;-88
2023/10/11 10:03:47;;;;;;;34.83;13.70;;;16.90;99.90;;;15.79;100.00;100879.38;10209044;28;96852;-87
2023/10/11 10:14:30;;;;;;;35.35;13.95;;;17.50;99.90;;;16.28;97.00;100868.03;10167410;28;98787;-88
2023/10/11 10:19:39;;;;;;;41.92;16.35;;;17.80;99.90;;;16.46;95.19;100861.41;10196625;28;96776;-88
2023/10/11 10:24:50;;;;;;;36.40;14.40;;;18.00;99.90;;;16.78;95.33;100844.00;10202949;28;98346;-88
2023/10/11 10:29:58;;;;;;;31.50;12.52;;;18.30;99.90;;;17.22;94.48;100838.41;10195975;28;96748;-88
2023/10/11 10:35:20;;;;;;;39.65;15.52;;;18.70;99.90;;;17.60;92.52;100829.94;10161982;28;97417;-88
2023/10/11 10:40:25;;;;;;;26.98;10.55;;;19.20;99.90;;;18.01;89.56;100827.28;10210556;28;96789;-86
2023/10/11 10:45:30;;;;;;;25.08;11.32;;;19.70;99.90;;;18.30;86.20;100818.06;10224564;28;96575;-88
2023/10/11 10:50:50;;;;;;;29.15;11.77;;;20.00;99.90;;;18.54;84.85;100813.13;10240644;28;96639;-88
2023/10/11 10:55:58;;;;;;;31.67;12.32;;;20.30;99.90;;;19.06;83.29;100800.72;10204964;28;96552;-86
2023/10/11 11:01:04;;;;;;;27.52;11.02;;;20.70;99.90;;;19.44;81.38;100782.03;10146780;28;97275;-88
2023/10/11 11:06:11;;;;;;;21.35;10.35;;;21.10;99.90;;;19.67;76.09;100768.06;10221960;28;97674;-88
2023/10/11 11:11:19;;;;;;;19.92;9.85;;;21.60;99.20;;;20.07;76.81;100760.59;10214807;28;96607;-88
2023/10/11 11:16:26;;;;;;;21.42;10.50;;;22.20;98.00;;;20.63;74.25;100748.19;10194103;28;96778;-88
2023/10/11 11:21:30;;;;;;;16.80;8.65;;;22.90;97.00;;;21.45;71.61;100741.59;10227595;28;98975;-88
2023/10/11 11:26:34;;;;;;;17.90;8.68;;;23.90;96.40;;;22.30;66.87;100740.66;10206288;28;97992;-88
2023/10/11 11:31:52;;;;;;;14.68;7.93;;;24.80;94.10;;;23.06;64.02;100730.88;10224371;28;97210;-88
2023/10/11 11:36:59;;;;;;;10.48;6.57;;;25.40;92.40;;;23.73;60.24;100720.34;10184125;28;97629;-87
2023/10/11 11:42:20;;;;;;;14.55;6.13;;;26.10;90.50;;;24.19;57.42;100721.19;10183957;28;96562;-88
2023/10/11 11:47:24;;;;;;;9.10;5.00;;;26.40;88.80;;;24.58;56.30;100713.97;10225474;28;96501;-89
2023/10/11 11:52:30;;;;;;;7.28;4.05;;;26.70;86.10;;;24.73;53.12;100711.53;10174797;28;98290;-88
2023/10/11 11:57:39;;;;;;;;;;;26.80;83.00;;;24.64;52.73;100709.47;10188807;28;97545;-88
2023/10/11 12:02:42;;;;;;;7.47;3.83;;;26.50;81.30;;;24.13;54.38;100712.16;10178510;28;98545;-87
2023/10/11 12:07:49;;;;;;;8.68;3.75;;;25.80;81.40;;;23.38;55.70;100704.16;10198633;28;97679;-88
2023/10/11 12:12:55;;;;;;;7.25;3.60;;;25.00;81.90;;;22.68;57.62;100708.59;10169373;28;96688;-87
2023/10/11 12:18:05;;;;;;;5.63;2.83;;;24.20;83.30;;;22.18;60.12;100700.03;10229819;28;96704;-86
2023/10/11 12:23:11;;;;;;;7.05;3.33;;;23.60;85.00;;;21.86;61.83;100702.16;10228217;28;96683;-87
2023/10/11 12:28:15;;;;;;;4.68;3.20;;;23.30;86.90;;;21.61;62.79;100694.19;10213248;28;96539;-86
2023/10/11 12:33:19;;;;;;;4.97;3.20;;;23.00;87.70;;;21.46;63.85;100689.16;10230100;28;96585;-86
2023/10/11 12:38:24;;;;;;;7.45;2.85;;;22.80;88.60;;;21.35;64.55;100689.91;10219668;28;96532;-86
2023/10/11 12:43:29;;;;;;;8.05;3.67;;;22.60;89.40;;;21.29;65.15;100674.59;10174227;28;96536;-86
2023/10/11 12:48:33;;;;;;;8.38;3.40;;;22.60;89.90;;;21.27;65.67;100669.41;10189016;28;96764;-85
2023/10/11 12:53:39;;;;;;;7.53;2.90;;;22.60;90.30;;;21.28;66.01;100656.72;10194386;28;98669;-86
2023/10/11 12:58:44;;;;;;;6.90;3.63;;;22.50;90.50;;;21.31;65.79;100653.59;10228014;28;96585;-86
2023/10/11 13:03:54;;;;;;;6.68;3.40;;;22.60;90.50;;;21.30;65.75;100644.66;10224154;28;96519;-86
2023/10/11 13:08:59;;;;;;;7.53;2.80;;;22.60;90.50;;;21.34;66.18;100636.91;10171863;28;96776;-86
2023/10/11 13:14:05;;;;;;;7.20;3.05;;;22.60;90.70;;;21.34;65.58;100628.78;10172679;28;96481;-86
2023/10/11 13:19:10;;;;;;;4.95;2.53;;;22.60;90.50;;;21.29;65.83;100625.94;10182775;28;96598;-87
2023/10/11 13:24:22;;;;;;;7.03;2.95;;;22.60;90.60;;;21.30;65.90;100616.81;10228610;28;97355;-86
2023/10/11 13:29:27;;;;;;;7.97;2.35;;;22.60;90.60;;;21.34;65.53;100608.00;10190573;28;96620;-86
2023/10/11 13:34:34;;;;;;;4.20;2.08;;;22.60;90.60;;;21.40;65.12;100605.44;10207284;28;97234;-87
2023/10/11 13:39:39;;;;;;;6.82;2.28;;;22.60;90.50;;;21.45;64.76;100595.59;10205653;28;96636;-87
2023/10/11 13:44:43;;;;;;;5.90;2.58;;;22.70;90.40;;;21.49;64.04;100593.25;10228045;28;96764;-86
2023/10/11 13:49:49;;;;;;;3.67;1.80;;;22.70;90.00;;;21.51;63.96;100585.72;10160024;28;96992;-86
2023/10/11 13:54:52;;;;;;;3.00;1.83;;;22.70;90.00;;;21.54;63.46;100585.28;10206840;28;96606;-87
2023/10/11 14:00:17;;;;;;;4.78;1.80;;;22.80;89.80;;;21.58;62.96;100586.44;10211119;28;96610;-87
2023/10/11 14:05:24;;;;;;;3.67;1.67;;;22.80;89.40;;;21.59;63.09;100575.44;10217810;28;96768;-87
2023/10/11 14:10:27;;;;;;;2.65;1.70;;;22.80;89.30;;;21.69;62.13;100579.44;10223263;28;98474;-87
2023/10/11 14:15:32;;;;;;;4.07;1.92;;;22.90;88.70;;;21.79;61.09;100572.41;10215574;28;97737;-88
2023/10/11 14:20:36;;;;;;;4.07;1.77;;;23.00;87.70;;;21.87;60.78;100574.75;10225994;28;97605;-86
2023/10/11 14:25:41;;;;;;;4.70;1.90;;;23.10;87.40;;;21.94;60.75;100577.34;10185491;28;96602;-87
2023/10/11 14:30:49;;;;;;;3.53;2.13;;;23.20;87.20;;;21.98;60.60;100570.44;10206359;28;96762;-86
2023/10/11 14:35:53;;;;;;;5.20;2.00;;;23.20;87.10;;;22.01;60.53;100561.84;10193190;28;96919;-87
2023/10/11 14:40:57;;;;;;;6.72;2.03;;;23.20;87.00;;;22.04;61.03;100568.66;10204715;28;96659;-86
2023/10/11 14:46:06;;;;;;;3.92;2.42;;;23.30;87.20;;;22.00;60.58;100560.19;10206247;28;96551;-86
2023/10/11 14:51:11;;;;;;;5.72;2.22;;;23.20;86.90;;;21.94;60.49;100558.41;10194568;28;97420;-87
2023/10/11 14:56:16;;;;;;;6.82;2.50;;;23.20;86.70;;;21.89;60.38;100550.16;10205964;28;96601;-86
2023/10/11 15:01:23;;;;;;;5.60;1.88;;;23.20;86.80;;;21.83;60.75;100556.50;10195058;28;97546;-86
2023/10/11 15:06:26;;;;;;;3.65;2.15;;;23.10;86.90;;;21.72;60.84;100546.53;10186776;28;98929;-86
2023/10/11 15:11:34;;;;;;;5.82;2.10;;;23.00;86.80;;;21.63;61.41;100538.72;10167961;28;97826;-87
2023/10/11 15:16:38;;;;;;;3.53;1.55;;;22.90;87.10;;;21.52;62.33;100539.53;10170020;28;96588;-87
2023/10/11 15:21:41;;;;;;;3.92;1.90;;;22.80;87.40;;;21.34;63.47;100542.28;10199990;28;97385;-88
2023/10/11 15:26:45;;;;;;;4.00;2.08;;;22.70;88.50;;;21.16;63.81;100537.72;10192895;28;97163;-88
2023/10/11 15:31:51;;;;;;;11.45;2.50;;;22.50;88.30;;;20.96;65.16;100539.88;10209579;28;97533;-87
2023/10/11 15:36:54;;;;;;;4.78;2.65;;;22.30;88.90;;;20.75;66.02;100544.72;10188638;28;96585;-87
2023/10/11 15:41:58;;;;;;;7.00;3.03;;;22.10;89.50;;;20.53;66.78;100544.34;10220443;28;96628;-87
2023/10/11 15:47:05;;;;;;;12.32;5.20;;;21.90;90.00;;;20.31;68.16;100556.59;10212096;28;98875;-87
2023/10/11 15:52:10;;;;;;;14.55;7.20;;;21.60;90.30;;;20.03;68.89;100554.34;10227752;28;96607;-88
2023/10/11 15:57:14;;;;;;;17.23;9.18;;;21.40;90.70;;;19.75;69.93;100557.50;10207536;28;98018;-88
2023/10/11 16:02:18;;;;;;;22.75;12.85;;;21.00;91.00;;;19.46;71.75;100562.44;10226719;28;96552;-87
2023/10/11 16:07:22;;;;;;;21.48;10.73;;;20.70;91.50;;;19.19;73.18;100560.94;10234732;28;97756;-87
2023/10/11 16:12:26;;;;;;;22.27;12.27;;;20.50;91.80;;;18.95;74.30;100571.44;10226341;28;96640;-88
2023/10/11 16:17:30;;;;;;;22.38;9.48;;;20.20;92.20;;;18.69;75.13;100577.72;10242255;28;96558;-87
2023/10/11 16:22:38;;;;;;;11.05;6.45;;;19.90;92.60;;;18.41;76.35;100583.38;10208378;28;96568;-87
2023/10/11 16:27:42;;;;;;;10.18;5.28;;;19.70;92.90;;;18.17;77.90;100582.16;10216138;28;97959;-87
2023/10/11 16:32:46;;;;;;;9.48;4.53;;;19.40;93.30;;;17.95;78.57;100587.94;10225315;28;96646;-86
2023/10/11 16:37:49;;;;;;;6.10;3.28;;;19.20;93.60;;;17.74;79.93;100591.63;10231537;28;96872;-87
2023/10/11 16:42:53;;;;;;;6.63;3.30;;;18.90;93.90;;;17.54;80.77;100592.41;10217507;28;98165;-86
2023/10/11 16:47:57;;;;;;;7.88;2.78;;;18.70;94.20;;;17.31;81.55;100598.13;10244474;28;96608;-88
2023/10/11 16:53:04;;;;;;;4.90;2.55;;;18.50;94.50;;;17.11;82.28;100598.06;10208710;28;97806;-87
2023/10/11 16:58:07;;;;;;;5.25;2.80;;;18.30;94.80;;;16.93;83.19;100605.84;10226476;28;97540;-86
2023/10/11 17:03:11;;;;;;;5.05;2.80;;;18.10;95.20;;;16.76;84.45;100615.25;10228632;28;96490;-87
2023/10/11 17:08:15;;;;;;;7.72;4.07;;;18.00;95.50;;;16.56;85.58;100601.69;10207653;28;97450;-88
2023/10/11 17:13:19;;;;;;;7.18;3.60;;;17.80;95.90;;;16.40;86.44;100602.81;10204003;28;97209;-87
2023/10/11 17:18:29;;;;;;;10.57;4.13;;;17.60;96.20;;;16.26;88.07;100609.13;10221084;28;98802;-87
2023/10/11 17:23:32;;;;;;;8.60;3.53;;;17.50;96.70;;;16.13;88.00;100611.69;10216087;28;98485;-87
2023/10/11 17:28:37;;;;;;;8.55;4.10;;;17.40;96.80;;;16.03;88.52;100612.03;10207811;28;96728;-88
2023/10/11 17:33:42;;;;;;;7.05;3.40;;;17.30;97.00;;;15.94;88.85;100614.00;10173643;28;96528;-87
2023/10/11 17:38:47;;;;;;;6.35;3.75;;;17.20;97.20;;;15.79;89.69;100606.06;10177172;28;96799;-87
2023/10/11 17:43:51;;;;;;;9.88;3.83;;;17.10;97.40;;;15.74;90.24;100608.47;10198549;28;96660;-87
2023/10/11 17:48:55;;;;;;;6.05;3.00;;;17.10;97.70;;;15.67;90.88;100612.13;10187351;28;96556;-87
2023/10/11 17:54:01;;;;;;;7.90;3.78;;;17.00;97.90;;;15.65;91.64;100611.47;10208512;28;98652;-87
2023/10/11 17:59:08;;;;;;;6.75;3.25;;;16.90;98.10;;;15.55;91.74;100633.19;10200731;28;96824;-88
2023/10/11 18:04:14;;;;;;;7.68;3.55;;;16.90;98.50;;;15.51;92.80;100629.22;10205051;28;96875;-87
2023/10/11 18:09:18;;;;;;;8.07;3.40;;;16.80;98.60;;;15.46;92.96;100627.09;10228296;28;99085;-87
2023/10/11 18:14:22;;;;;;;7.45;4.03;;;16.80;98.80;;;15.36;93.89;100621.25;10202733;28;97049;-87
2023/10/11 18:19:29;;;;;;;10.38;4.63;;;16.70;99.10;;;15.30;95.32;100626.53;10208074;28;98768;-87
2023/10/11 18:24:36;;;;;;;7.57;3.85;;;16.50;99.50;;;15.24;95.37;100620.06;10204381;28;96725;-87
2023/10/11 18:29:40;;;;;;;9.35;3.90;;;16.50;99.80;;;15.16;95.91;100622.84;10197244;28;97406;-88
2023/10/11 18:34:43;;;;;;;7.07;4.13;;;16.40;99.90;;;15.09;96.32;100619.25;10187323;28;96671;-88
2023/10/11 18:39:48;;;;;;;8.50;5.00;;;16.40;99.90;;;15.05;97.71;100612.59;10186191;28;98896;-87
2023/10/11 18:44:53;;;;;;;10.25;4.82;;;16.30;99.90;;;15.01;97.24;100619.38;10180636;28;97627;-87
2023/10/11 18:49:57;;;;;;;7.97;4.72;;;16.30;99.90;;;14.91;97.15;100611.63;10216952;28;98454;-87
2023/10/11 18:55:01;;;;;;;8.60;4.50;;;16.20;99.90;;;14.80;97.31;100596.03;10198802;28;97370;-87
2023/10/11 19:00:11;;;;;;;6.82;4.05;;;16.10;99.90;;;14.67;98.05;100610.06;10194564;28;96865;-86
2023/10/11 19:05:18;;;;;;;7.03;3.42;;;15.90;99.90;;;14.57;98.36;100610.31;10202331;28;98208;-87
2023/10/11 19:10:25;;;;;;;7.18;4.15;;;15.80;99.90;;;14.46;98.46;100613.44;10201153;28;96949;-87
2023/10/11 19:15:29;;;;;;;7.88;4.50;;;15.80;99.90;;;14.33;98.97;100622.06;10225328;28;96660;-85
2023/10/11 19:20:33;;;;;;;8.32;4.60;;;15.60;99.90;;;14.23;99.16;100623.34;10210903;28;97277;-88
2023/10/11 19:25:37;;;;;;;8.90;4.28;;;15.50;99.90;;;14.12;99.54;100617.41;10242027;28;96705;-87
2023/10/11 19:30:43;;;;;;;10.13;4.40;;;15.40;99.90;;;14.05;100.00;100616.50;10214783;28;96855;-87
2023/10/11 19:35:50;;;;;;;8.05;3.97;;;15.40;99.90;;;13.98;100.00;100626.25;10222740;28;96992;-88
2023/10/11 19:41:02;;;;;;;9.13;4.53;;;15.30;99.90;;;13.93;100.00;100631.28;10219403;28;97231;-87
2023/10/11 19:46:22;;;;;;;9.50;5.47;;;15.20;99.90;;;13.86;100.00;100623.16;10220689;28;99022;-87
2023/10/11 19:51:29;;;;;;;9.27;4.75;;;15.10;99.90;;;13.83;100.00;100622.69;10212347;28;96683;-87
2023/10/11 19:56:39;;;;;;;7.35;4.13;;;15.10;99.90;;;13.78;100.00;100622.38;10206754;28;97791;-87
2023/10/11 20:01:57;;;;;;;11.15;5.32;;;15.10;99.90;;;13.68;100.00;100613.78;10195004;28;97219;-87
2023/10/11 20:07:17;;;;;;;7.13;4.17;;;15.00;99.90;;;13.61;100.00;100614.50;10199370;28;96687;-88
2023/10/11 20:12:23;;;;;;;6.97;4.60;;;14.90;99.90;;;13.58;100.00;100620.19;10200395;28;96744;-88
2023/10/11 20:17:28;;;;;;;8.25;4.50;;;14.80;99.90;;;13.48;100.00;100613.41;10170772;28;98464;-87
2023/10/11 20:22:33;;;;;;;7.18;4.25;;;14.80;99.90;;;13.39;100.00;100617.97;10207712;28;96551;-88
2023/10/11 20:27:44;;;;;;;11.33;5.00;;;14.70;99.90;;;13.32;100.00;100603.66;10216105;28;96679;-87
2023/10/11 20:32:51;;;;;;;10.10;4.40;;;14.60;99.90;;;13.25;100.00;100597.34;10165610;28;98452;-88
2023/10/11 20:38:02;;;;;;;8.53;4.33;;;14.50;99.90;;;13.18;100.00;100597.19;10201037;28;96715;-88
2023/10/11 20:43:06;;;;;;;;;;;14.50;99.90;;;13.13;100.00;100599.53;10210842;28;96693;-88
2023/10/11 20:48:11;;;;;;;11.47;5.00;;;14.40;99.90;;;13.07;100.00;100610.91;10178002;28;98479;-88
2023/10/11 20:53:15;;;;;;;8.47;4.57;;;14.40;99.90;;;13.00;100.00;100599.28;10224275;28;96698;-88
2023/10/11 20:58:21;;;;;;;11.67;5.10;;;14.30;99.90;;;12.93;100.00;100604.47;10205573;28;96749;-88
2023/10/11 21:03:26;;;;;;;11.20;5.87;;;14.30;99.90;;;12.88;100.00;100604.16;10198622;28;96664;-88
2023/10/11 21:08:29;;;;;;;9.40;4.37;;;14.20;99.90;;;12.84;100.00;100618.88;10223898;28;99063;-88
2023/10/11 21:13:33;;;;;;;7.23;4.30;;;14.20;99.90;;;12.79;100.00;100614.03;10179892;28;96480;-87
2023/10/11 21:18:38;;;;;;;9.03;4.50;;;14.10;99.90;;;12.75;100.00;100601.22;10224171;28;97473;-87
2023/10/11 21:23:45;;;;;;;9.17;4.40;;;14.10;99.90;;;12.71;100.00;100611.38;10209744;28;97510;-88
2023/10/11 21:28:52;;;;;;;11.47;5.27;;;14.00;99.90;;;12.61;100.00;100610.78;10224628;28;97052;-88
2023/10/11 21:33:57;;;;;;;8.70;4.63;;;13.90;99.90;;;12.54;100.00;100601.81;10173997;28;96841;-88
2023/10/11 21:39:01;;;;;;;8.17;4.43;;;13.90;99.90;;;12.50;100.00;100601.28;10187149;28;96582;-87
2023/10/11 21:44:05;;;;;;;8.37;4.47;;;13.80;99.90;;;12.45;100.00;100598.31;10195835;28;97613;-88